createdAt,value
2023-04-08T00:00:41.333Z,0.00
2023-04-08T00:01:42.066Z,0.00
2023-04-08T00:02:41.401Z,0.00
2023-04-08T00:03:42.109Z,0.00
2023-04-08T00:04:42.010Z,0.00
2023-04-08T00:05:41.948Z,0.00
2023-04-08T00:06:41.950Z,0.00
2023-04-08T00:07:41.940Z,0.00
2023-04-08T00:08:41.239Z,0.00
2023-04-08T00:09:41.918Z,0.00
2023-04-08T00:10:41.892Z,0.00
2023-04-08T00:11:41.208Z,0.00
2023-04-08T00:12:42.145Z,0.00
2023-04-08T00:13:41.879Z,0.00
2023-04-08T00:14:41.868Z,0.00
2023-04-08T00:15:41.853Z,0.00
2023-04-08T00:16:41.924Z,0.00
2023-04-08T00:17:41.875Z,0.00
2023-04-08T00:18:41.832Z,0.00
2023-04-08T00:19:41.815Z,0.00
2023-04-08T00:20:41.791Z,0.00
2023-04-08T00:21:41.792Z,0.00
2023-04-08T00:22:41.781Z,0.00
2023-04-08T00:23:42.030Z,0.00
2023-04-08T00:24:41.758Z,0.00
2023-04-08T00:25:41.746Z,0.00
2023-04-08T00:26:41.740Z,0.00
2023-04-08T00:27:41.992Z,0.00
2023-04-08T00:28:41.725Z,0.00
2023-04-08T00:29:41.706Z,0.00
2023-04-08T00:30:41.043Z,0.00
2023-04-08T00:31:41.685Z,0.00
2023-04-08T00:32:41.701Z,0.00
2023-04-08T00:33:41.676Z,0.00
2023-04-08T00:34:41.651Z,0.00
2023-04-08T00:35:41.653Z,0.00
2023-04-08T00:36:41.633Z,0.00
2023-04-08T00:37:41.630Z,0.00
2023-04-08T00:38:41.870Z,0.00
2023-04-08T00:39:41.855Z,0.00
2023-04-08T00:40:41.575Z,0.00
2023-04-08T00:41:40.894Z,0.00
2023-04-08T00:42:41.570Z,0.00
2023-04-08T00:43:41.584Z,0.00
2023-04-08T00:44:41.551Z,0.00
2023-04-08T00:45:41.525Z,0.00
2023-04-08T00:46:41.646Z,0.00
2023-04-08T00:47:40.873Z,0.00
2023-04-08T00:48:41.520Z,0.00
2023-04-08T00:49:42.766Z,0.00
2023-04-08T00:50:41.467Z,0.00
2023-04-08T00:51:41.481Z,0.00
2023-04-08T00:52:41.467Z,0.00
2023-04-08T00:53:41.456Z,0.00
2023-04-08T00:54:41.437Z,0.00
2023-04-08T00:55:41.434Z,0.00
2023-04-08T00:56:41.425Z,0.00
2023-04-08T00:57:41.417Z,0.00
2023-04-08T00:58:41.406Z,0.00
2023-04-08T00:59:41.403Z,0.00
2023-04-08T01:00:41.386Z,0.00
2023-04-08T01:01:40.804Z,0.00
2023-04-08T01:02:41.505Z,0.00
2023-04-08T01:03:41.460Z,0.00
2023-04-08T01:04:41.323Z,0.00
2023-04-08T01:05:40.645Z,0.00
2023-04-08T01:06:40.648Z,0.00
2023-04-08T01:07:41.324Z,0.00
2023-04-08T01:08:41.297Z,0.00
2023-04-08T01:09:40.677Z,0.00
2023-04-08T01:10:40.575Z,0.00
2023-04-08T01:11:40.587Z,0.00
2023-04-08T01:12:40.558Z,0.00
2023-04-08T01:13:40.557Z,0.00
2023-04-08T01:14:41.218Z,0.00
2023-04-08T01:15:42.493Z,0.00
2023-04-08T01:16:41.460Z,0.00
2023-04-08T01:17:40.522Z,0.00
2023-04-08T01:18:41.196Z,0.00
2023-04-08T01:19:40.556Z,0.00
2023-04-08T01:20:41.169Z,0.00
2023-04-08T01:21:41.419Z,0.00
2023-04-08T01:22:41.152Z,0.00
2023-04-08T01:23:40.467Z,0.00
2023-04-08T01:24:41.112Z,0.00
2023-04-08T01:25:40.435Z,0.00
2023-04-08T01:26:41.113Z,0.00
2023-04-08T01:27:41.100Z,0.00
2023-04-08T01:28:40.407Z,0.00
2023-04-08T01:29:40.493Z,0.00
2023-04-08T01:30:41.089Z,0.00
2023-04-08T01:31:41.169Z,0.00
2023-04-08T01:32:41.084Z,0.00
2023-04-08T01:33:41.037Z,0.00
2023-04-08T01:34:41.006Z,0.00
2023-04-08T01:35:41.080Z,0.00
2023-04-08T01:36:41.003Z,0.00
2023-04-08T01:37:40.996Z,0.00
2023-04-08T01:38:40.999Z,0.00
2023-04-08T01:39:40.964Z,0.00
2023-04-08T01:40:40.299Z,0.00
2023-04-08T01:41:40.288Z,0.00
2023-04-08T01:42:40.947Z,0.00
2023-04-08T01:43:40.935Z,0.00
2023-04-08T01:44:40.910Z,0.00
2023-04-08T01:45:40.913Z,0.00
2023-04-08T01:46:40.918Z,0.00
2023-04-08T01:47:40.950Z,0.00
2023-04-08T01:48:40.852Z,0.00
2023-04-08T01:49:40.852Z,0.00
2023-04-08T01:50:40.865Z,0.00
2023-04-08T01:51:40.163Z,0.00
2023-04-08T01:52:40.838Z,0.00
2023-04-08T01:53:40.158Z,0.00
2023-04-08T01:54:41.084Z,0.00
2023-04-08T01:55:40.808Z,0.00
2023-04-08T01:56:40.797Z,0.00
2023-04-08T01:57:40.098Z,0.00
2023-04-08T01:58:40.109Z,0.00
2023-04-08T01:59:40.775Z,0.00
2023-04-08T02:00:40.083Z,0.00
2023-04-08T02:01:40.117Z,0.00
2023-04-08T02:02:42.182Z,0.00
2023-04-08T02:03:40.810Z,0.00
2023-04-08T02:04:40.270Z,0.00
2023-04-08T02:05:41.963Z,0.00
2023-04-08T02:06:40.697Z,0.00
2023-04-08T02:07:40.686Z,0.00
2023-04-08T02:08:40.655Z,0.00
2023-04-08T02:09:40.659Z,0.00
2023-04-08T02:10:39.957Z,0.00
2023-04-08T02:11:40.635Z,0.00
2023-04-08T02:12:40.630Z,0.00
2023-04-08T02:13:40.616Z,0.00
2023-04-08T02:14:40.584Z,0.00
2023-04-08T02:15:39.909Z,0.00
2023-04-08T02:16:40.702Z,0.00
2023-04-08T02:17:40.582Z,0.00
2023-04-08T02:18:39.873Z,0.00
2023-04-08T02:19:40.532Z,0.00
2023-04-08T02:20:39.878Z,0.00
2023-04-08T02:21:39.856Z,0.00
2023-04-08T02:22:40.514Z,0.00
2023-04-08T02:23:40.518Z,0.00
2023-04-08T02:24:40.478Z,0.00
2023-04-08T02:25:40.495Z,0.00
2023-04-08T02:26:39.791Z,0.00
2023-04-08T02:27:40.467Z,0.00
2023-04-08T02:28:39.790Z,0.00
2023-04-08T02:29:39.768Z,0.00
2023-04-08T02:30:40.440Z,0.00
2023-04-08T02:31:39.761Z,0.00
2023-04-08T02:32:40.758Z,0.00
2023-04-08T02:33:39.730Z,0.00
2023-04-08T02:34:41.173Z,0.00
2023-04-08T02:35:40.440Z,0.00
2023-04-08T02:36:40.370Z,0.00
2023-04-08T02:37:40.358Z,0.00
2023-04-08T02:38:39.678Z,0.00
2023-04-08T02:39:39.693Z,0.00
2023-04-08T02:40:40.325Z,0.00
2023-04-08T02:41:40.316Z,0.00
2023-04-08T02:42:40.310Z,0.00
2023-04-08T02:43:39.607Z,0.00
2023-04-08T02:44:40.270Z,0.00
2023-04-08T02:45:40.312Z,0.00
2023-04-08T02:46:40.258Z,0.00
2023-04-08T02:47:40.334Z,0.00
2023-04-08T02:48:39.575Z,0.00
2023-04-08T02:49:40.225Z,0.00
2023-04-08T02:50:39.538Z,0.00
2023-04-08T02:51:39.526Z,0.00
2023-04-08T02:52:40.199Z,0.00
2023-04-08T02:53:40.181Z,0.00
2023-04-08T02:54:39.501Z,0.00
2023-04-08T02:55:40.195Z,0.00
2023-04-08T02:56:40.151Z,0.00
2023-04-08T02:57:40.138Z,0.00
2023-04-08T02:58:40.128Z,0.00
2023-04-08T02:59:40.098Z,0.00
2023-04-08T03:00:39.467Z,0.00
2023-04-08T03:01:40.199Z,0.00
2023-04-08T03:02:40.277Z,0.00
2023-04-08T03:03:40.211Z,0.00
2023-04-08T03:04:40.061Z,0.00
2023-04-08T03:05:40.076Z,0.00
2023-04-08T03:06:40.051Z,0.00
2023-04-08T03:07:39.369Z,0.00
2023-04-08T03:08:39.342Z,0.00
2023-04-08T03:09:39.996Z,0.00
2023-04-08T03:10:40.002Z,0.00
2023-04-08T03:11:39.999Z,0.00
2023-04-08T03:12:39.284Z,0.00
2023-04-08T03:13:39.968Z,0.00
2023-04-08T03:14:39.300Z,0.00
2023-04-08T03:15:39.947Z,0.00
2023-04-08T03:16:39.253Z,0.00
2023-04-08T03:17:39.254Z,0.00
2023-04-08T03:18:39.911Z,0.00
2023-04-08T03:19:39.231Z,0.00
2023-04-08T03:20:39.209Z,0.00
2023-04-08T03:21:39.880Z,0.00
2023-04-08T03:22:39.872Z,0.00
2023-04-08T03:23:39.860Z,0.00
2023-04-08T03:24:39.833Z,0.00
2023-04-08T03:25:39.156Z,0.00
2023-04-08T03:26:39.832Z,0.00
2023-04-08T03:27:39.821Z,0.00
2023-04-08T03:28:39.792Z,0.00
2023-04-08T03:29:39.796Z,0.00
2023-04-08T03:30:39.096Z,0.00
2023-04-08T03:31:39.138Z,0.00
2023-04-08T03:32:39.835Z,0.00
2023-04-08T03:33:39.753Z,0.00
2023-04-08T03:34:39.744Z,0.00
2023-04-08T03:35:39.769Z,0.00
2023-04-08T03:36:39.736Z,0.00
2023-04-08T03:37:39.030Z,0.00
2023-04-08T03:38:39.048Z,0.00
2023-04-08T03:39:39.703Z,0.00
2023-04-08T03:40:39.677Z,0.00
2023-04-08T03:41:39.674Z,0.00
2023-04-08T03:42:39.657Z,0.00
2023-04-08T03:43:39.628Z,0.00
2023-04-08T03:44:39.640Z,0.00
2023-04-08T03:45:39.660Z,0.00
2023-04-08T03:46:39.618Z,0.00
2023-04-08T03:47:39.615Z,0.00
2023-04-08T03:48:39.577Z,0.00
2023-04-08T03:49:38.905Z,0.00
2023-04-08T03:50:39.575Z,0.00
2023-04-08T03:51:38.892Z,0.00
2023-04-08T03:52:38.882Z,0.00
2023-04-08T03:53:38.867Z,0.00
2023-04-08T03:54:38.848Z,0.00
2023-04-08T03:55:39.520Z,0.00
2023-04-08T03:56:38.838Z,0.00
2023-04-08T03:57:38.810Z,0.00
2023-04-08T03:58:39.472Z,0.00
2023-04-08T03:59:38.798Z,0.00
2023-04-08T04:00:39.465Z,0.00
2023-04-08T04:01:41.715Z,0.00
2023-04-08T04:02:39.006Z,0.00
2023-04-08T04:03:39.479Z,0.00
2023-04-08T04:04:39.466Z,0.00
2023-04-08T04:05:38.738Z,0.00
2023-04-08T04:06:38.742Z,0.00
2023-04-08T04:07:39.397Z,0.00
2023-04-08T04:08:38.727Z,0.00
2023-04-08T04:09:39.380Z,0.00
2023-04-08T04:10:39.373Z,0.00
2023-04-08T04:11:39.359Z,0.00
2023-04-08T04:12:39.337Z,0.00
2023-04-08T04:13:38.672Z,0.00
2023-04-08T04:14:39.320Z,0.00
2023-04-08T04:15:39.388Z,0.00
2023-04-08T04:16:39.322Z,0.00
2023-04-08T04:17:38.622Z,0.00
2023-04-08T04:18:38.707Z,0.00
2023-04-08T04:19:39.273Z,0.00
2023-04-08T04:20:39.268Z,0.00
2023-04-08T04:21:38.564Z,0.00
2023-04-08T04:22:39.234Z,0.00
2023-04-08T04:23:39.215Z,0.00
2023-04-08T04:24:38.535Z,0.00
2023-04-08T04:25:39.212Z,0.00
2023-04-08T04:26:39.192Z,0.00
2023-04-08T04:27:38.495Z,0.00
2023-04-08T04:28:39.163Z,0.00
2023-04-08T04:29:38.485Z,0.00
2023-04-08T04:30:38.488Z,0.00
2023-04-08T04:31:39.182Z,0.00
2023-04-08T04:32:39.143Z,0.00
2023-04-08T04:33:38.457Z,0.00
2023-04-08T04:34:38.424Z,0.00
2023-04-08T04:35:38.454Z,0.00
2023-04-08T04:36:38.415Z,0.00
2023-04-08T04:37:38.390Z,0.00
2023-04-08T04:38:38.393Z,0.00
2023-04-08T04:39:39.059Z,0.00
2023-04-08T04:40:39.067Z,0.00
2023-04-08T04:41:38.360Z,0.00
2023-04-08T04:42:38.339Z,0.00
2023-04-08T04:43:39.001Z,0.00
2023-04-08T04:44:38.318Z,0.00
2023-04-08T04:45:38.989Z,0.00
2023-04-08T04:46:39.048Z,0.00
2023-04-08T04:47:38.306Z,0.00
2023-04-08T04:48:38.317Z,0.00
2023-04-08T04:49:38.951Z,0.00
2023-04-08T04:50:38.263Z,0.00
2023-04-08T04:51:38.253Z,5.62
2023-04-08T04:52:38.894Z,5.62
2023-04-08T04:53:38.917Z,5.62
2023-04-08T04:54:38.232Z,5.62
2023-04-08T04:55:39.385Z,5.62
2023-04-08T04:56:38.878Z,5.62
2023-04-08T04:57:38.840Z,5.62
2023-04-08T04:58:38.181Z,11.25
2023-04-08T04:59:38.165Z,11.25
2023-04-08T05:00:38.166Z,11.25
2023-04-08T05:01:38.239Z,11.25
2023-04-08T05:02:38.265Z,16.88
2023-04-08T05:03:38.888Z,16.88
2023-04-08T05:04:38.133Z,16.88
2023-04-08T05:05:38.107Z,16.88
2023-04-08T05:06:38.777Z,22.50
2023-04-08T05:07:38.088Z,22.50
2023-04-08T05:08:38.741Z,22.50
2023-04-08T05:09:38.750Z,22.50
2023-04-08T05:10:38.738Z,22.50
2023-04-08T05:11:38.730Z,22.50
2023-04-08T05:12:38.030Z,22.50
2023-04-08T05:13:38.707Z,22.50
2023-04-08T05:14:38.700Z,22.50
2023-04-08T05:15:38.687Z,22.50
2023-04-08T05:16:38.770Z,22.50
2023-04-08T05:17:38.038Z,22.50
2023-04-08T05:18:38.638Z,28.12
2023-04-08T05:19:38.647Z,28.12
2023-04-08T05:20:38.637Z,28.12
2023-04-08T05:21:38.628Z,28.12
2023-04-08T05:22:38.622Z,33.75
2023-04-08T05:23:37.948Z,33.75
2023-04-08T05:24:37.909Z,45.00
2023-04-08T05:25:38.588Z,56.25
2023-04-08T05:26:38.575Z,67.50
2023-04-08T05:27:38.567Z,73.12
2023-04-08T05:28:38.535Z,73.12
2023-04-08T05:29:37.861Z,84.38
2023-04-08T05:30:38.548Z,84.38
2023-04-08T05:31:38.586Z,73.12
2023-04-08T05:32:38.556Z,73.12
2023-04-08T05:33:38.496Z,84.38
2023-04-08T05:34:37.807Z,101.25
2023-04-08T05:35:37.877Z,118.12
2023-04-08T05:36:37.808Z,118.12
2023-04-08T05:37:38.476Z,118.12
2023-04-08T05:38:37.783Z,112.50
2023-04-08T05:39:38.497Z,129.38
2023-04-08T05:40:37.756Z,123.75
2023-04-08T05:41:38.416Z,118.12
2023-04-08T05:42:38.410Z,118.12
2023-04-08T05:43:37.722Z,118.12
2023-04-08T05:44:38.382Z,123.75
2023-04-08T05:45:38.376Z,129.38
2023-04-08T05:46:37.737Z,140.62
2023-04-08T05:47:37.839Z,157.50
2023-04-08T05:48:38.339Z,174.38
2023-04-08T05:49:37.649Z,185.62
2023-04-08T05:50:37.640Z,196.88
2023-04-08T05:51:38.315Z,202.50
2023-04-08T05:52:38.302Z,202.50
2023-04-08T05:53:37.624Z,202.50
2023-04-08T05:54:37.603Z,191.25
2023-04-08T05:55:38.267Z,180.00
2023-04-08T05:56:38.256Z,174.38
2023-04-08T05:57:38.522Z,163.12
2023-04-08T05:58:38.238Z,151.88
2023-04-08T05:59:37.547Z,140.62
2023-04-08T06:00:37.526Z,135.00
2023-04-08T06:01:37.596Z,123.75
2023-04-08T06:02:37.751Z,112.50
2023-04-08T06:03:37.567Z,106.88
2023-04-08T06:04:37.691Z,106.88
2023-04-08T06:05:37.599Z,106.88
2023-04-08T06:06:38.147Z,106.88
2023-04-08T06:07:38.423Z,106.88
2023-04-08T06:08:38.120Z,112.50
2023-04-08T06:09:37.474Z,123.75
2023-04-08T06:10:37.438Z,123.75
2023-04-08T06:11:38.901Z,123.75
2023-04-08T06:12:38.058Z,123.75
2023-04-08T06:13:38.327Z,123.75
2023-04-08T06:14:38.056Z,123.75
2023-04-08T06:15:37.371Z,129.38
2023-04-08T06:16:38.060Z,135.00
2023-04-08T06:17:37.425Z,129.38
2023-04-08T06:18:38.021Z,135.00
2023-04-08T06:19:38.001Z,140.62
2023-04-08T06:20:38.269Z,146.25
2023-04-08T06:21:38.241Z,151.88
2023-04-08T06:22:38.010Z,185.62
2023-04-08T06:23:37.958Z,196.88
2023-04-08T06:24:37.946Z,191.25
2023-04-08T06:25:37.936Z,196.88
2023-04-08T06:26:38.214Z,174.38
2023-04-08T06:27:37.903Z,174.38
2023-04-08T06:28:37.911Z,174.38
2023-04-08T06:29:37.890Z,191.25
2023-04-08T06:30:39.140Z,208.12
2023-04-08T06:31:37.977Z,219.38
2023-04-08T06:32:38.202Z,219.38
2023-04-08T06:33:37.852Z,208.12
2023-04-08T06:34:37.839Z,196.88
2023-04-08T06:35:37.178Z,185.62
2023-04-08T06:36:37.816Z,180.00
2023-04-08T06:37:37.797Z,180.00
2023-04-08T06:38:38.071Z,174.38
2023-04-08T06:39:37.110Z,185.62
2023-04-08T06:40:37.782Z,191.25
2023-04-08T06:41:37.761Z,196.88
2023-04-08T06:42:37.737Z,196.88
2023-04-08T06:43:37.985Z,202.50
2023-04-08T06:44:37.055Z,208.12
2023-04-08T06:45:37.133Z,213.75
2023-04-08T06:46:37.712Z,219.38
2023-04-08T06:47:39.001Z,219.38
2023-04-08T06:48:37.867Z,230.62
2023-04-08T06:49:37.697Z,258.75
2023-04-08T06:50:37.675Z,455.62
2023-04-08T06:51:37.914Z,753.75
2023-04-08T06:52:37.634Z,916.88
2023-04-08T06:53:37.876Z,399.38
2023-04-08T06:54:37.620Z,472.50
2023-04-08T06:55:37.610Z,393.75
2023-04-08T06:56:37.857Z,337.50
2023-04-08T06:57:37.578Z,286.88
2023-04-08T06:58:37.845Z,247.50
2023-04-08T06:59:36.880Z,225.00
2023-04-08T07:00:37.807Z,208.12
2023-04-08T07:01:37.897Z,191.25
2023-04-08T07:02:37.987Z,157.50
2023-04-08T07:03:37.651Z,163.12
2023-04-08T07:04:37.795Z,163.12
2023-04-08T07:05:37.505Z,146.25
2023-04-08T07:06:37.498Z,123.75
2023-04-08T07:07:37.487Z,123.75
2023-04-08T07:08:37.479Z,106.88
2023-04-08T07:09:37.461Z,101.25
2023-04-08T07:10:37.713Z,95.62
2023-04-08T07:11:38.729Z,95.62
2023-04-08T07:12:36.750Z,95.62
2023-04-08T07:13:36.732Z,90.00
2023-04-08T07:14:37.407Z,84.38
2023-04-08T07:15:36.745Z,90.00
2023-04-08T07:16:36.749Z,95.62
2023-04-08T07:17:37.425Z,106.88
2023-04-08T07:18:37.366Z,129.38
2023-04-08T07:19:36.674Z,135.00
2023-04-08T07:20:37.347Z,146.25
2023-04-08T07:21:38.622Z,168.75
2023-04-08T07:22:36.667Z,157.50
2023-04-08T07:23:37.330Z,151.88
2023-04-08T07:24:37.302Z,151.88
2023-04-08T07:25:36.620Z,146.25
2023-04-08T07:26:37.285Z,163.12
2023-04-08T07:27:37.253Z,168.75
2023-04-08T07:28:37.520Z,168.75
2023-04-08T07:29:37.508Z,180.00
2023-04-08T07:30:37.517Z,180.00
2023-04-08T07:31:37.228Z,168.75
2023-04-08T07:32:37.244Z,157.50
2023-04-08T07:33:37.203Z,151.88
2023-04-08T07:34:37.199Z,146.25
2023-04-08T07:35:38.468Z,129.38
2023-04-08T07:36:36.487Z,129.38
2023-04-08T07:37:36.516Z,123.75
2023-04-08T07:38:37.151Z,123.75
2023-04-08T07:39:37.141Z,112.50
2023-04-08T07:40:37.383Z,118.12
2023-04-08T07:41:37.360Z,129.38
2023-04-08T07:42:40.295Z,129.38
2023-04-08T07:43:37.622Z,129.38
2023-04-08T07:44:37.097Z,146.25
2023-04-08T07:45:37.078Z,146.25
2023-04-08T07:46:37.349Z,157.50
2023-04-08T07:47:37.326Z,174.38
2023-04-08T07:48:37.293Z,180.00
2023-04-08T07:49:37.288Z,202.50
2023-04-08T07:50:37.025Z,213.75
2023-04-08T07:51:37.336Z,236.25
2023-04-08T07:52:36.985Z,270.00
2023-04-08T07:53:37.008Z,309.38
2023-04-08T07:54:37.246Z,337.50
2023-04-08T07:55:36.975Z,365.62
2023-04-08T07:56:36.962Z,433.12
2023-04-08T07:57:37.030Z,461.25
2023-04-08T07:58:37.189Z,438.75
2023-04-08T07:59:38.198Z,466.88
2023-04-08T08:00:36.231Z,416.25
2023-04-08T08:01:38.273Z,450.00
2023-04-08T08:02:38.249Z,540.00
2023-04-08T08:03:38.272Z,984.38
2023-04-08T08:04:36.336Z,1040.62
2023-04-08T08:05:37.171Z,973.12
2023-04-08T08:06:36.853Z,843.75
2023-04-08T08:07:36.850Z,1080.00
2023-04-08T08:08:36.831Z,793.12
2023-04-08T08:09:36.149Z,562.50
2023-04-08T08:10:36.813Z,466.88
2023-04-08T08:11:36.115Z,410.62
2023-04-08T08:12:36.121Z,416.25
2023-04-08T08:13:38.020Z,461.25
2023-04-08T08:14:37.051Z,444.38
2023-04-08T08:15:36.090Z,444.38
2023-04-08T08:16:36.837Z,472.50
2023-04-08T08:17:36.092Z,562.50
2023-04-08T08:18:36.044Z,421.88
2023-04-08T08:19:36.038Z,433.12
2023-04-08T08:20:36.712Z,399.38
2023-04-08T08:21:37.964Z,354.38
2023-04-08T08:22:44.157Z,320.62
2023-04-08T08:23:37.997Z,286.88
2023-04-08T08:24:37.887Z,292.50
2023-04-08T08:25:36.653Z,292.50
2023-04-08T08:26:36.665Z,303.75
2023-04-08T08:27:35.980Z,275.62
2023-04-08T08:28:36.631Z,292.50
2023-04-08T08:29:35.927Z,320.62
2023-04-08T08:30:35.915Z,382.50
2023-04-08T08:31:36.897Z,545.62
2023-04-08T08:32:36.852Z,641.25
2023-04-08T08:33:36.584Z,1226.25
2023-04-08T08:34:36.561Z,1243.12
2023-04-08T08:35:36.835Z,680.62
2023-04-08T08:36:36.798Z,556.88
2023-04-08T08:37:35.840Z,495.00
2023-04-08T08:38:37.253Z,534.38
2023-04-08T08:39:36.511Z,821.25
2023-04-08T08:40:36.760Z,450.00
2023-04-08T08:41:35.799Z,421.88
2023-04-08T08:42:35.802Z,416.25
2023-04-08T08:43:36.462Z,393.75
2023-04-08T08:44:36.451Z,354.38
2023-04-08T08:45:36.440Z,292.50
2023-04-08T08:46:35.921Z,241.88
2023-04-08T08:47:36.437Z,213.75
2023-04-08T08:48:36.410Z,191.25
2023-04-08T08:49:36.412Z,191.25
2023-04-08T08:50:36.387Z,196.88
2023-04-08T08:51:35.696Z,202.50
2023-04-08T08:52:36.367Z,208.12
2023-04-08T08:53:36.356Z,225.00
2023-04-08T08:54:36.348Z,230.62
2023-04-08T08:56:00.313Z,225.00
2023-04-08T08:56:37.586Z,219.38
2023-04-08T08:57:36.303Z,247.50
2023-04-08T08:58:35.611Z,281.25
2023-04-08T08:59:35.616Z,303.75
2023-04-08T09:00:36.281Z,360.00
2023-04-08T09:01:36.438Z,455.62
2023-04-08T09:02:36.328Z,455.62
2023-04-08T09:03:36.512Z,337.50
2023-04-08T09:04:36.617Z,337.50
2023-04-08T09:05:36.328Z,399.38
2023-04-08T09:06:36.521Z,495.00
2023-04-08T09:07:36.207Z,517.50
2023-04-08T09:08:36.203Z,511.88
2023-04-08T09:09:36.194Z,472.50
2023-04-08T09:10:35.500Z,450.00
2023-04-08T09:11:36.162Z,371.25
2023-04-08T09:12:35.502Z,326.25
2023-04-08T09:13:36.152Z,298.12
2023-04-08T09:14:36.130Z,275.62
2023-04-08T09:15:36.125Z,264.38
2023-04-08T09:16:35.521Z,253.12
2023-04-08T09:17:35.455Z,247.50
2023-04-08T09:18:36.086Z,236.25
2023-04-08T09:19:35.392Z,236.25
2023-04-08T09:20:36.070Z,236.25
2023-04-08T09:21:35.368Z,236.25
2023-04-08T09:22:36.027Z,236.25
2023-04-08T09:23:35.364Z,225.00
2023-04-08T09:24:35.347Z,230.62
2023-04-08T09:25:35.345Z,258.75
2023-04-08T09:26:37.256Z,286.88
2023-04-08T09:27:35.996Z,292.50
2023-04-08T09:28:35.982Z,298.12
2023-04-08T09:29:39.126Z,286.88
2023-04-08T09:30:36.202Z,281.25
2023-04-08T09:31:35.321Z,281.25
2023-04-08T09:32:35.955Z,281.25
2023-04-08T09:33:35.928Z,298.12
2023-04-08T09:34:35.940Z,320.62
2023-04-08T09:35:35.928Z,343.12
2023-04-08T09:36:35.228Z,360.00
2023-04-08T09:37:35.871Z,365.62
2023-04-08T09:38:35.183Z,382.50
2023-04-08T09:39:35.876Z,393.75
2023-04-08T09:40:35.857Z,388.12
2023-04-08T09:41:35.843Z,388.12
2023-04-08T09:42:35.820Z,388.12
2023-04-08T09:43:35.820Z,388.12
2023-04-08T09:44:35.129Z,360.00
2023-04-08T09:45:35.134Z,360.00
2023-04-08T09:46:35.788Z,343.12
2023-04-08T09:47:35.124Z,348.75
2023-04-08T09:48:35.767Z,365.62
2023-04-08T09:49:35.076Z,382.50
2023-04-08T09:50:35.065Z,376.88
2023-04-08T09:51:35.092Z,360.00
2023-04-08T09:52:35.064Z,348.75
2023-04-08T09:53:35.723Z,331.88
2023-04-08T09:54:35.022Z,320.62
2023-04-08T09:55:35.691Z,331.88
2023-04-08T09:56:35.004Z,354.38
2023-04-08T09:57:35.663Z,354.38
2023-04-08T09:58:35.659Z,376.88
2023-04-08T09:59:35.650Z,466.88
2023-04-08T10:00:35.638Z,545.62
2023-04-08T10:01:35.736Z,500.62
2023-04-08T10:02:35.087Z,421.88
2023-04-08T10:03:34.993Z,360.00
2023-04-08T10:04:35.639Z,331.88
2023-04-08T10:05:35.586Z,315.00
2023-04-08T10:06:34.884Z,354.38
2023-04-08T10:07:35.539Z,354.38
2023-04-08T10:08:34.869Z,410.62
2023-04-08T10:09:34.856Z,399.38
2023-04-08T10:10:35.534Z,382.50
2023-04-08T10:11:34.848Z,444.38
2023-04-08T10:12:35.494Z,500.62
2023-04-08T10:13:35.520Z,495.00
2023-04-08T10:14:34.798Z,511.88
2023-04-08T10:15:34.794Z,511.88
2023-04-08T10:16:35.484Z,478.12
2023-04-08T10:17:35.489Z,410.62
2023-04-08T10:18:34.772Z,320.62
2023-04-08T10:19:35.442Z,298.12
2023-04-08T10:20:34.874Z,331.88
2023-04-08T10:21:35.418Z,388.12
2023-04-08T10:22:34.755Z,421.88
2023-04-08T10:23:35.391Z,472.50
2023-04-08T10:24:35.381Z,506.25
2023-04-08T10:25:35.394Z,511.88
2023-04-08T10:26:34.673Z,416.25
2023-04-08T10:27:35.332Z,354.38
2023-04-08T10:28:35.336Z,337.50
2023-04-08T10:29:35.338Z,320.62
2023-04-08T10:30:35.315Z,315.00
2023-04-08T10:31:36.639Z,320.62
2023-04-08T10:32:34.616Z,326.25
2023-04-08T10:33:47.388Z,337.50
2023-04-08T10:34:37.015Z,365.62
2023-04-08T10:35:35.291Z,405.00
2023-04-08T10:36:35.246Z,410.62
2023-04-08T10:37:35.239Z,416.25
2023-04-08T10:38:35.244Z,388.12
2023-04-08T10:39:36.902Z,393.75
2023-04-08T10:40:34.521Z,376.88
2023-04-08T10:41:34.539Z,348.75
2023-04-08T10:42:34.543Z,326.25
2023-04-08T10:43:34.559Z,343.12
2023-04-08T10:44:35.162Z,376.88
2023-04-08T10:45:35.154Z,405.00
2023-04-08T10:46:35.241Z,382.50
2023-04-08T10:47:34.536Z,343.12
2023-04-08T10:48:35.123Z,315.00
2023-04-08T10:49:34.436Z,343.12
2023-04-08T10:50:34.420Z,416.25
2023-04-08T10:51:35.101Z,450.00
2023-04-08T10:52:35.057Z,466.88
2023-04-08T10:53:35.069Z,427.50
2023-04-08T10:54:34.387Z,416.25
2023-04-08T10:55:34.364Z,416.25
2023-04-08T10:56:35.034Z,421.88
2023-04-08T10:57:35.016Z,399.38
2023-04-08T10:58:35.026Z,376.88
2023-04-08T10:59:35.002Z,354.38
2023-04-08T11:00:34.330Z,331.88
2023-04-08T11:01:34.403Z,382.50
2023-04-08T11:02:34.449Z,410.62
2023-04-08T11:03:34.441Z,416.25
2023-04-08T11:04:35.020Z,427.50
2023-04-08T11:05:34.938Z,421.88
2023-04-08T11:06:34.911Z,410.62
2023-04-08T11:07:34.240Z,410.62
2023-04-08T11:08:34.919Z,393.75
2023-04-08T11:09:34.900Z,376.88
2023-04-08T11:10:34.199Z,348.75
2023-04-08T11:11:34.190Z,343.12
2023-04-08T11:12:34.848Z,360.00
2023-04-08T11:13:34.182Z,388.12
2023-04-08T11:14:34.842Z,405.00
2023-04-08T11:15:34.163Z,427.50
2023-04-08T11:16:34.896Z,421.88
2023-04-08T11:17:34.154Z,433.12
2023-04-08T11:18:34.802Z,472.50
2023-04-08T11:19:34.112Z,528.75
2023-04-08T11:20:34.105Z,545.62
2023-04-08T11:21:34.084Z,489.38
2023-04-08T11:22:34.747Z,405.00
2023-04-08T11:23:34.753Z,388.12
2023-04-08T11:24:34.057Z,365.62
2023-04-08T11:25:34.049Z,371.25
2023-04-08T11:26:34.726Z,388.12
2023-04-08T11:27:34.688Z,450.00
2023-04-08T11:28:34.020Z,495.00
2023-04-08T11:29:34.029Z,489.38
2023-04-08T11:30:34.679Z,540.00
2023-04-08T11:31:34.051Z,517.50
2023-04-08T11:32:33.996Z,523.12
2023-04-08T11:33:33.959Z,511.88
2023-04-08T11:34:34.638Z,506.25
2023-04-08T11:35:33.996Z,483.75
2023-04-08T11:36:34.595Z,483.75
2023-04-08T11:37:34.600Z,478.12
2023-04-08T11:38:33.910Z,483.75
2023-04-08T11:39:34.580Z,483.75
2023-04-08T11:40:33.890Z,489.38
2023-04-08T11:41:34.554Z,478.12
2023-04-08T11:42:34.524Z,500.62
2023-04-08T11:43:34.529Z,523.12
2023-04-08T11:44:34.530Z,528.75
2023-04-08T11:45:34.510Z,551.25
2023-04-08T11:46:34.515Z,562.50
2023-04-08T11:47:34.505Z,545.62
2023-04-08T11:48:34.480Z,489.38
2023-04-08T11:49:34.469Z,433.12
2023-04-08T11:50:34.454Z,393.75
2023-04-08T11:51:34.446Z,410.62
2023-04-08T11:52:33.779Z,444.38
2023-04-08T11:53:34.430Z,450.00
2023-04-08T11:54:34.411Z,461.25
2023-04-08T11:55:33.723Z,478.12
2023-04-08T11:56:33.726Z,472.50
2023-04-08T11:57:33.710Z,478.12
2023-04-08T11:58:33.688Z,466.88
2023-04-08T11:59:33.678Z,478.12
2023-04-08T12:00:34.350Z,438.75
2023-04-08T12:01:34.361Z,421.88
2023-04-08T12:02:33.742Z,438.75
2023-04-08T12:03:34.428Z,438.75
2023-04-08T12:04:34.430Z,455.62
2023-04-08T12:05:33.601Z,444.38
2023-04-08T12:06:34.282Z,433.12
2023-04-08T12:07:34.265Z,433.12
2023-04-08T12:08:33.577Z,416.25
2023-04-08T12:09:33.573Z,427.50
2023-04-08T12:10:34.245Z,376.88
2023-04-08T12:11:33.543Z,376.88
2023-04-08T12:12:33.564Z,348.75
2023-04-08T12:13:33.539Z,326.25
2023-04-08T12:14:33.513Z,331.88
2023-04-08T12:15:34.191Z,337.50
2023-04-08T12:16:34.241Z,360.00
2023-04-08T12:17:34.191Z,371.25
2023-04-08T12:18:33.472Z,382.50
2023-04-08T12:19:34.465Z,393.75
2023-04-08T12:20:33.443Z,405.00
2023-04-08T12:21:34.099Z,410.62
2023-04-08T12:22:33.415Z,405.00
2023-04-08T12:23:33.416Z,405.00
2023-04-08T12:24:34.089Z,410.62
2023-04-08T12:25:33.375Z,416.25
2023-04-08T12:26:33.400Z,427.50
2023-04-08T12:27:33.467Z,421.88
2023-04-08T12:28:33.430Z,410.62
2023-04-08T12:29:34.030Z,388.12
2023-04-08T12:30:33.328Z,371.25
2023-04-08T12:31:33.368Z,348.75
2023-04-08T12:32:34.071Z,371.25
2023-04-08T12:33:33.313Z,393.75
2023-04-08T12:34:33.310Z,399.38
2023-04-08T12:35:33.994Z,421.88
2023-04-08T12:36:33.966Z,438.75
2023-04-08T12:37:33.938Z,438.75
2023-04-08T12:38:33.942Z,444.38
2023-04-08T12:39:33.250Z,438.75
2023-04-08T12:40:33.916Z,421.88
2023-04-08T12:41:33.223Z,416.25
2023-04-08T12:42:33.880Z,410.62
2023-04-08T12:43:33.881Z,410.62
2023-04-08T12:44:33.187Z,405.00
2023-04-08T12:45:33.172Z,393.75
2023-04-08T12:46:33.892Z,393.75
2023-04-08T12:47:33.881Z,399.38
2023-04-08T12:48:33.163Z,371.25